createdAt,value
2017-04-02T00:00:36.143Z,14.45
2017-04-02T00:01:16.668Z,14.51
2017-04-02T00:01:57.178Z,14.43
2017-04-02T00:02:37.627Z,14.39
2017-04-02T00:03:18.315Z,14.33
2017-04-02T00:03:58.779Z,14.37
2017-04-02T00:04:39.315Z,14.37
2017-04-02T00:05:19.801Z,14.39
2017-04-02T00:06:00.274Z,14.39
2017-04-02T00:06:40.734Z,14.37
2017-04-02T00:07:21.198Z,14.25
2017-04-02T00:08:01.748Z,14.24
2017-04-02T00:08:42.200Z,14.37
2017-04-02T00:09:22.762Z,14.43
2017-04-02T00:10:03.185Z,14.42
2017-04-02T00:10:43.630Z,14.42
2017-04-02T00:11:24.124Z,14.33
2017-04-02T00:12:04.607Z,14.37
2017-04-02T00:12:45.089Z,14.45
2017-04-02T00:13:25.590Z,14.39
2017-04-02T00:14:06.087Z,14.39
2017-04-02T00:14:46.605Z,14.45
2017-04-02T00:15:27.143Z,14.4
2017-04-02T00:16:07.601Z,14.35
2017-04-02T00:16:48.092Z,14.5
2017-04-02T00:17:28.598Z,14.51
2017-04-02T00:18:09.073Z,14.51
2017-04-02T00:18:49.565Z,14.47
2017-04-02T00:19:30.025Z,14.51
2017-04-02T00:20:10.559Z,14.46
2017-04-02T00:20:51.043Z,14.47
2017-04-02T00:21:31.558Z,14.46
2017-04-02T00:22:12.048Z,14.46
2017-04-02T00:22:52.504Z,14.39
2017-04-02T00:23:33.000Z,14.28
2017-04-02T00:24:13.561Z,14.32
2017-04-02T00:24:54.012Z,14.17
2017-04-02T00:25:34.589Z,14.17
2017-04-02T00:26:15.038Z,14.18
2017-04-02T00:26:55.524Z,14.14
2017-04-02T00:27:36.026Z,14.17
2017-04-02T00:28:16.508Z,14.14
2017-04-02T00:28:57.024Z,14.18
2017-04-02T00:29:37.510Z,14.21
2017-04-02T00:30:18.028Z,14.17
2017-04-02T00:30:58.476Z,14.22
2017-04-02T00:31:39.010Z,14.29
2017-04-02T00:32:19.481Z,14.27
2017-04-02T00:33:00.009Z,14.4
2017-04-02T00:33:40.482Z,14.37
2017-04-02T00:34:20.933Z,14.32
2017-04-02T00:35:01.451Z,14.32
2017-04-02T00:35:41.924Z,14.29
2017-04-02T00:36:22.425Z,14.29
2017-04-02T00:37:03.015Z,14.18
2017-04-02T00:37:43.467Z,14.12
2017-04-02T00:38:23.948Z,14.06
2017-04-02T00:39:04.458Z,14.03
2017-04-02T00:39:44.948Z,13.87
2017-04-02T00:40:25.500Z,13.87
2017-04-02T00:41:05.930Z,13.87
2017-04-02T00:41:46.472Z,13.89
2017-04-02T00:42:26.943Z,13.95
2017-04-02T00:43:07.458Z,13.95
2017-04-02T00:43:47.979Z,13.97
2017-04-02T00:44:28.460Z,13.89
2017-04-02T00:45:08.920Z,13.89
2017-04-02T00:45:49.429Z,13.87
2017-04-02T00:46:29.912Z,13.89
2017-04-02T00:47:10.387Z,13.87
2017-04-02T00:47:50.912Z,13.69
2017-04-02T00:48:31.401Z,13.79
2017-04-02T00:49:11.865Z,13.73
2017-04-02T00:49:52.449Z,13.84
2017-04-02T00:50:32.883Z,13.84
2017-04-02T00:51:13.388Z,13.89
2017-04-02T00:51:53.907Z,13.95
2017-04-02T00:52:34.443Z,14.04
2017-04-02T00:53:14.925Z,13.96
2017-04-02T00:53:55.385Z,13.85
2017-04-02T00:54:35.888Z,13.84
2017-04-02T00:55:16.358Z,13.91
2017-04-02T00:55:56.889Z,13.85
2017-04-02T00:56:37.483Z,13.87
2017-04-02T00:57:17.977Z,13.97
2017-04-02T00:57:58.569Z,13.79
2017-04-02T00:58:39.014Z,13.88
2017-04-02T00:59:19.528Z,13.82
2017-04-02T01:00:00.006Z,13.73
2017-04-02T01:00:40.689Z,13.75
2017-04-02T01:01:21.043Z,13.73
2017-04-02T01:02:01.551Z,13.78
2017-04-02T01:02:42.031Z,13.88
2017-04-02T01:03:22.530Z,13.89
2017-04-02T01:04:02.997Z,13.91
2017-04-02T01:04:43.503Z,13.88
2017-04-02T01:05:24.031Z,13.88
2017-04-02T01:06:04.496Z,13.87
2017-04-02T01:06:44.989Z,13.91
2017-04-02T01:07:25.507Z,13.85
2017-04-02T01:08:05.957Z,13.78
2017-04-02T01:08:46.493Z,13.82
2017-04-02T01:09:26.941Z,13.84
2017-04-02T01:10:07.448Z,13.91
2017-04-02T01:10:47.925Z,13.87
2017-04-02T01:11:28.419Z,13.85
2017-04-02T01:12:08.907Z,13.95
2017-04-02T01:12:49.406Z,14.04
2017-04-02T01:13:29.897Z,14.14
2017-04-02T01:14:10.420Z,14.18
2017-04-02T01:14:50.893Z,14.17
2017-04-02T01:15:31.385Z,14.28
2017-04-02T01:16:11.887Z,14.14
2017-04-02T01:16:52.438Z,14.2
2017-04-02T01:17:32.923Z,14.21
2017-04-02T01:18:13.418Z,14.2
2017-04-02T01:18:53.906Z,14.15
2017-04-02T01:19:34.423Z,14.2
2017-04-02T01:20:14.903Z,14.14
2017-04-02T01:20:55.370Z,14.09
2017-04-02T01:21:35.825Z,14.04
2017-04-02T01:22:16.335Z,14.03
2017-04-02T01:22:56.856Z,13.99
2017-04-02T01:23:37.310Z,13.95
2017-04-02T01:24:17.811Z,14.07
2017-04-02T01:24:58.347Z,13.97
2017-04-02T01:25:38.877Z,13.99
2017-04-02T01:26:19.347Z,14.03
2017-04-02T01:26:59.818Z,13.96
2017-04-02T01:27:40.302Z,14.09
2017-04-02T01:28:20.840Z,14.15
2017-04-02T01:29:01.324Z,14.17
2017-04-02T01:29:41.812Z,14.17
2017-04-02T01:30:22.322Z,14.18
2017-04-02T01:31:02.834Z,14.14
2017-04-02T01:31:43.324Z,14.15
2017-04-02T01:32:23.800Z,14.15
2017-04-02T01:33:04.338Z,14.29
2017-04-02T01:33:44.797Z,14.24
2017-04-02T01:34:25.307Z,14.27
2017-04-02T01:35:05.809Z,14.42
2017-04-02T01:35:46.270Z,14.27
2017-04-02T01:36:26.777Z,14.25
2017-04-02T01:37:07.253Z,14.42
2017-04-02T01:37:47.752Z,14.37
2017-04-02T01:38:28.252Z,14.29
2017-04-02T01:39:08.752Z,14.27
2017-04-02T01:39:49.226Z,14.32
2017-04-02T01:40:29.714Z,14.25
2017-04-02T01:41:10.225Z,14.25
2017-04-02T01:41:50.723Z,14.35
2017-04-02T01:42:31.200Z,14.29
2017-04-02T01:43:11.647Z,14.29
2017-04-02T01:43:52.146Z,14.21
2017-04-02T01:44:32.644Z,14.15
2017-04-02T01:45:13.127Z,14.06
2017-04-02T01:45:53.636Z,14.14
2017-04-02T01:46:34.126Z,14.17
2017-04-02T01:47:14.589Z,14.14
2017-04-02T01:47:55.086Z,14.1
2017-04-02T01:48:35.577Z,14.18
2017-04-02T01:49:16.070Z,14.12
2017-04-02T01:49:56.613Z,14.18
2017-04-02T01:50:37.064Z,14.12
2017-04-02T01:51:17.586Z,14.15
2017-04-02T01:51:58.093Z,14.18
2017-04-02T01:52:38.558Z,14.21
2017-04-02T01:53:19.106Z,14.1
2017-04-02T01:53:59.534Z,14.03
2017-04-02T01:54:40.037Z,14.06
2017-04-02T01:55:20.504Z,14.02
2017-04-02T01:56:01.014Z,13.92
2017-04-02T01:56:41.520Z,13.88
2017-04-02T01:57:21.962Z,13.89
2017-04-02T01:58:02.472Z,13.95
2017-04-02T01:58:42.953Z,13.91
2017-04-02T01:59:23.461Z,13.96
2017-04-02T02:00:03.966Z,13.96
2017-04-02T02:00:44.455Z,13.92
2017-04-02T02:01:24.963Z,13.97
2017-04-02T02:02:05.428Z,13.91
2017-04-02T02:02:46.357Z,14.09
2017-04-02T02:03:26.665Z,14.09
2017-04-02T02:04:07.132Z,14.04
2017-04-02T02:04:47.634Z,13.99
2017-04-02T02:05:28.135Z,13.84
2017-04-02T02:06:08.622Z,13.88
2017-04-02T02:06:49.125Z,13.88
2017-04-02T02:07:29.661Z,13.82
2017-04-02T02:08:10.093Z,13.87
2017-04-02T02:08:50.604Z,13.91
2017-04-02T02:09:31.105Z,13.91
2017-04-02T02:10:11.630Z,13.89
2017-04-02T02:10:52.094Z,13.87
2017-04-02T02:11:32.616Z,13.87
2017-04-02T02:12:13.087Z,13.88
2017-04-02T02:12:53.581Z,13.85
2017-04-02T02:13:34.070Z,13.84
2017-04-02T02:14:14.564Z,13.82
2017-04-02T02:14:55.064Z,13.79
2017-04-02T02:15:35.563Z,13.66
2017-04-02T02:16:16.063Z,13.77
2017-04-02T02:16:56.573Z,13.78
2017-04-02T02:17:37.045Z,13.84
2017-04-02T02:18:17.539Z,13.97
2017-04-02T02:18:58.033Z,14.1
2017-04-02T02:19:38.506Z,14.06
2017-04-02T02:20:19.032Z,14.06
2017-04-02T02:20:59.506Z,14.04
2017-04-02T02:21:40.012Z,14.06
2017-04-02T02:22:20.518Z,14.14
2017-04-02T02:23:01.033Z,14.17
2017-04-02T02:23:41.529Z,14.24
2017-04-02T02:24:21.999Z,14.18
2017-04-02T02:25:02.494Z,14.17
2017-04-02T02:25:42.988Z,14.02
2017-04-02T02:26:23.491Z,14.06
2017-04-02T02:27:04.002Z,14.04
2017-04-02T02:27:44.503Z,13.87
2017-04-02T02:28:25.020Z,13.89
2017-04-02T02:29:05.532Z,13.88
2017-04-02T02:29:45.991Z,13.88
2017-04-02T02:30:26.458Z,13.87
2017-04-02T02:31:06.963Z,13.77
2017-04-02T02:31:47.467Z,13.84
2017-04-02T02:32:27.948Z,13.88
2017-04-02T02:33:08.449Z,13.95
2017-04-02T02:33:48.949Z,13.89
2017-04-02T02:34:29.484Z,13.96
2017-04-02T02:35:09.971Z,13.91
2017-04-02T02:35:50.452Z,13.82
2017-04-02T02:36:30.968Z,13.79
2017-04-02T02:37:11.447Z,13.79
2017-04-02T02:37:51.940Z,13.7
2017-04-02T02:38:32.421Z,13.66
2017-04-02T02:39:12.922Z,13.6
2017-04-02T02:39:53.418Z,13.54
2017-04-02T02:40:33.909Z,13.57
2017-04-02T02:41:14.395Z,13.52
2017-04-02T02:41:54.869Z,13.46
2017-04-02T02:42:35.407Z,13.49
2017-04-02T02:43:15.884Z,13.39
2017-04-02T02:43:56.371Z,13.39
2017-04-02T02:44:36.836Z,13.32
2017-04-02T02:45:17.934Z,13.32
2017-04-02T02:45:58.460Z,13.36
2017-04-02T02:46:38.930Z,13.33
2017-04-02T02:47:19.433Z,13.41
2017-04-02T02:47:59.912Z,13.29
2017-04-02T02:48:40.403Z,13.41
2017-04-02T02:49:20.895Z,13.39
2017-04-02T02:50:01.405Z,13.3
2017-04-02T02:50:41.885Z,13.28
2017-04-02T02:51:22.371Z,13.36
2017-04-02T02:52:02.899Z,13.25
2017-04-02T02:52:43.342Z,13.36
2017-04-02T02:53:23.858Z,13.29
2017-04-02T02:54:04.360Z,13.41
2017-04-02T02:54:44.876Z,13.33
2017-04-02T02:55:25.421Z,13.39
2017-04-02T02:56:05.858Z,13.25
2017-04-02T02:56:46.339Z,13.36
2017-04-02T02:57:26.841Z,13.3
2017-04-02T02:58:07.335Z,13.28
2017-04-02T02:58:47.844Z,13.23
2017-04-02T02:59:28.345Z,13.29
2017-04-02T03:00:08.844Z,13.3
2017-04-02T03:00:49.324Z,13.29
2017-04-02T03:01:29.805Z,13.3
2017-04-02T03:02:10.298Z,13.39
2017-04-02T03:02:50.787Z,13.39
2017-04-02T03:03:31.304Z,13.39
2017-04-02T03:04:11.770Z,13.46
2017-04-02T03:04:52.257Z,13.49
2017-04-02T03:05:32.781Z,13.33
2017-04-02T03:06:13.255Z,13.36
2017-04-02T03:06:53.764Z,13.3
2017-04-02T03:07:34.232Z,13.29
2017-04-02T03:08:14.756Z,13.33
2017-04-02T03:08:55.248Z,13.33
2017-04-02T03:09:35.752Z,13.41
2017-04-02T03:10:16.244Z,13.36
2017-04-02T03:10:56.762Z,13.29
2017-04-02T03:11:37.246Z,13.29
2017-04-02T03:12:17.744Z,13.26
2017-04-02T03:12:58.221Z,13.32
2017-04-02T03:13:38.744Z,13.3
2017-04-02T03:14:19.202Z,13.25
2017-04-02T03:14:59.687Z,13.19
2017-04-02T03:15:40.186Z,13.19
2017-04-02T03:16:20.693Z,13.19
2017-04-02T03:17:01.147Z,13.22
2017-04-02T03:17:41.699Z,13.2
2017-04-02T03:18:22.139Z,13.19
2017-04-02T03:19:02.645Z,13.25
2017-04-02T03:19:43.155Z,13.32
2017-04-02T03:20:23.642Z,13.36
2017-04-02T03:21:04.183Z,13.32
2017-04-02T03:21:44.616Z,13.26
2017-04-02T03:22:25.172Z,13.28
2017-04-02T03:23:05.713Z,13.22
2017-04-02T03:23:46.220Z,13.32
2017-04-02T03:24:26.760Z,13.33
2017-04-02T03:25:07.261Z,13.41
2017-04-02T03:25:47.744Z,13.39
2017-04-02T03:26:28.226Z,13.46
2017-04-02T03:27:08.709Z,13.49
2017-04-02T03:27:49.212Z,13.45
2017-04-02T03:28:29.707Z,13.44
2017-04-02T03:29:10.183Z,13.3
2017-04-02T03:29:50.686Z,13.36
2017-04-02T03:30:31.150Z,13.3
2017-04-02T03:31:11.650Z,13.3
2017-04-02T03:31:52.141Z,13.39
2017-04-02T03:32:32.651Z,13.33
2017-04-02T03:33:13.185Z,13.28
2017-04-02T03:33:53.583Z,13.3
2017-04-02T03:34:34.097Z,13.32
2017-04-02T03:35:14.577Z,13.41
2017-04-02T03:35:55.138Z,13.28
2017-04-02T03:36:35.590Z,13.26
2017-04-02T03:37:16.104Z,13.29
2017-04-02T03:37:56.603Z,13.33
2017-04-02T03:38:37.055Z,13.32
2017-04-02T03:39:17.526Z,13.36
2017-04-02T03:39:58.035Z,13.51
2017-04-02T03:40:38.532Z,13.51
2017-04-02T03:41:19.037Z,13.42
2017-04-02T03:41:59.510Z,13.41
2017-04-02T03:42:39.989Z,13.33
2017-04-02T03:43:20.494Z,13.36
2017-04-02T03:44:00.985Z,13.29
2017-04-02T03:44:41.505Z,13.28
2017-04-02T03:45:21.971Z,13.42
2017-04-02T03:46:02.474Z,13.49
2017-04-02T03:46:42.978Z,13.41
2017-04-02T03:47:23.436Z,13.36
2017-04-02T03:48:03.945Z,13.29
2017-04-02T03:48:44.460Z,13.28
2017-04-02T03:49:24.955Z,13.22
2017-04-02T03:50:05.437Z,13.2
2017-04-02T03:50:45.942Z,13.12
2017-04-02T03:51:26.470Z,13.28
2017-04-02T03:52:06.970Z,13.33
2017-04-02T03:52:47.469Z,13.33
2017-04-02T03:53:27.969Z,13.39
2017-04-02T03:54:08.464Z,13.42
2017-04-02T03:54:48.982Z,13.45
2017-04-02T03:55:29.468Z,13.52
2017-04-02T03:56:09.980Z,13.57
2017-04-02T03:56:50.454Z,13.55
2017-04-02T03:57:30.969Z,13.55
2017-04-02T03:58:11.480Z,13.41
2017-04-02T03:58:51.951Z,13.29
2017-04-02T03:59:32.461Z,13.22
2017-04-02T04:00:12.926Z,13.12
2017-04-02T04:00:53.465Z,13.1
2017-04-02T04:01:33.923Z,13.07
2017-04-02T04:02:14.412Z,13.11
2017-04-02T04:02:54.894Z,13.17
2017-04-02T04:03:35.385Z,13.23
2017-04-02T04:04:15.875Z,13.12
2017-04-02T04:04:56.384Z,13.15
2017-04-02T04:05:36.863Z,13.08
2017-04-02T04:06:17.385Z,13.11
2017-04-02T04:06:57.888Z,13.11
2017-04-02T04:07:38.347Z,13.12
2017-04-02T04:08:18.865Z,13.14
2017-04-02T04:08:59.334Z,13.14
2017-04-02T04:09:39.826Z,13.2
2017-04-02T04:10:20.330Z,13.19
2017-04-02T04:11:00.813Z,13.08
2017-04-02T04:11:41.328Z,13.14
2017-04-02T04:12:21.796Z,13.11
2017-04-02T04:13:02.309Z,13.1
2017-04-02T04:13:42.838Z,13.17
2017-04-02T04:14:23.315Z,13.2
2017-04-02T04:15:03.761Z,13.23
2017-04-02T04:15:44.293Z,13.25
2017-04-02T04:16:24.841Z,13.08
2017-04-02T04:17:05.338Z,13.03
2017-04-02T04:17:45.790Z,12.97
2017-04-02T04:18:26.315Z,12.96
2017-04-02T04:19:06.774Z,12.92
2017-04-02T04:19:47.294Z,12.93
2017-04-02T04:20:27.757Z,12.97
2017-04-02T04:21:08.270Z,13.01
2017-04-02T04:21:48.756Z,12.96
2017-04-02T04:22:29.241Z,13.04
2017-04-02T04:23:09.726Z,13.04
2017-04-02T04:23:50.217Z,13.1
2017-04-02T04:24:30.715Z,13.2
2017-04-02T04:25:11.201Z,13.25
2017-04-02T04:25:51.694Z,13.2
2017-04-02T04:26:32.195Z,13.29
2017-04-02T04:27:12.733Z,13.38
2017-04-02T04:27:53.218Z,13.41
2017-04-02T04:28:33.697Z,13.41
2017-04-02T04:29:14.212Z,13.41
2017-04-02T04:29:54.679Z,13.39
2017-04-02T04:30:35.244Z,13.22
2017-04-02T04:31:15.688Z,13.28
2017-04-02T04:31:56.153Z,13.22
2017-04-02T04:32:36.621Z,13.12
2017-04-02T04:33:17.134Z,13.15
2017-04-02T04:33:57.625Z,13.2
2017-04-02T04:34:38.140Z,13.15
2017-04-02T04:35:18.658Z,13.15
2017-04-02T04:35:59.192Z,13.17
2017-04-02T04:36:39.657Z,13.2
2017-04-02T04:37:20.165Z,13.2
2017-04-02T04:38:00.683Z,13.3
2017-04-02T04:38:41.165Z,13.39
2017-04-02T04:39:21.680Z,13.38
2017-04-02T04:40:02.230Z,13.41
2017-04-02T04:40:42.681Z,13.38
2017-04-02T04:41:23.166Z,13.3
2017-04-02T04:42:03.656Z,13.42
2017-04-02T04:42:44.142Z,13.29
2017-04-02T04:43:24.612Z,13.33
2017-04-02T04:44:05.136Z,13.38
2017-04-02T04:44:45.612Z,13.3
2017-04-02T04:45:26.134Z,13.14
2017-04-02T04:46:06.669Z,13.2
2017-04-02T04:46:47.103Z,13.11
2017-04-02T04:47:27.573Z,13.11
2017-04-02T04:48:08.078Z,13.19
2017-04-02T04:48:48.577Z,13.12
2017-04-02T04:49:29.066Z,13.17
2017-04-02T04:50:09.584Z,13.12
2017-04-02T04:50:50.073Z,13.12
2017-04-02T04:51:30.649Z,13.19
2017-04-02T04:52:11.156Z,13.28
2017-04-02T04:52:51.608Z,13.33
2017-04-02T04:53:32.116Z,13.39
2017-04-02T04:54:12.621Z,13.41
2017-04-02T04:54:53.098Z,13.41
2017-04-02T04:55:33.590Z,13.55
2017-04-02T04:56:14.134Z,13.6
2017-04-02T04:56:54.585Z,13.6
2017-04-02T04:57:35.107Z,13.71
2017-04-02T04:58:15.584Z,13.67
2017-04-02T04:58:56.064Z,13.71
2017-04-02T04:59:36.558Z,13.84
2017-04-02T05:00:17.046Z,13.79
2017-04-02T05:00:57.567Z,13.64
2017-04-02T05:01:38.049Z,13.64
2017-04-02T05:02:18.560Z,13.59
2017-04-02T05:02:59.036Z,13.54
2017-04-02T05:03:39.506Z,13.52
2017-04-02T05:04:20.025Z,13.52
2017-04-02T05:05:00.521Z,13.55
2017-04-02T05:05:41.050Z,13.57
2017-04-02T05:06:21.526Z,13.62
2017-04-02T05:07:02.061Z,13.66
2017-04-02T05:07:42.536Z,13.79
2017-04-02T05:08:23.057Z,13.75
2017-04-02T05:09:03.530Z,13.82
2017-04-02T05:09:44.035Z,13.82
2017-04-02T05:10:24.539Z,13.79
2017-04-02T05:11:04.981Z,13.81
2017-04-02T05:11:45.506Z,13.78
2017-04-02T05:12:25.988Z,13.81
2017-04-02T05:13:06.486Z,13.77
2017-04-02T05:13:46.982Z,13.77
2017-04-02T05:14:27.487Z,13.78
2017-04-02T05:15:07.985Z,13.7
2017-04-02T05:15:48.464Z,13.78
2017-04-02T05:16:28.964Z,13.79
2017-04-02T05:17:09.494Z,13.84
2017-04-02T05:17:49.962Z,13.75
2017-04-02T05:18:30.499Z,13.79
2017-04-02T05:19:10.960Z,13.67
2017-04-02T05:19:51.433Z,13.66
2017-04-02T05:20:31.912Z,13.69
2017-04-02T05:21:12.419Z,13.6
2017-04-02T05:21:52.931Z,13.55
2017-04-02T05:22:33.442Z,13.59
2017-04-02T05:23:13.949Z,13.57
2017-04-02T05:23:54.441Z,13.42
2017-04-02T05:24:34.943Z,13.44
2017-04-02T05:25:15.432Z,13.42
2017-04-02T05:25:55.893Z,13.48
2017-04-02T05:26:36.408Z,13.52
2017-04-02T05:27:16.956Z,13.55
2017-04-02T05:27:57.433Z,13.51
2017-04-02T05:28:37.914Z,13.57
2017-04-02T05:29:18.403Z,13.44
2017-04-02T05:29:58.900Z,13.38
2017-04-02T05:30:39.384Z,13.44
2017-04-02T05:31:19.887Z,13.46
2017-04-02T05:32:00.390Z,13.45
2017-04-02T05:32:40.902Z,13.59
2017-04-02T05:33:21.374Z,13.55
2017-04-02T05:34:01.898Z,13.55
2017-04-02T05:34:42.380Z,13.6
2017-04-02T05:35:22.872Z,13.57
2017-04-02T05:36:03.341Z,13.55
2017-04-02T05:36:43.853Z,13.46
2017-04-02T05:37:24.351Z,13.46
2017-04-02T05:38:04.839Z,13.38
2017-04-02T05:38:45.333Z,13.39
2017-04-02T05:39:25.816Z,13.42
2017-04-02T05:40:06.293Z,13.41
2017-04-02T05:40:46.807Z,13.33
2017-04-02T05:41:27.271Z,13.39
2017-04-02T05:42:07.749Z,13.39
2017-04-02T05:42:48.283Z,13.28
2017-04-02T05:43:28.761Z,13.29
2017-04-02T05:44:09.235Z,13.45
2017-04-02T05:44:49.771Z,13.45
2017-04-02T05:45:30.246Z,13.48
2017-04-02T05:46:10.767Z,13.49
2017-04-02T05:46:51.306Z,13.41
2017-04-02T05:47:31.796Z,13.33
2017-04-02T05:48:12.286Z,13.23
2017-04-02T05:48:52.828Z,13.08
2017-04-02T05:49:33.332Z,13.17
2017-04-02T05:50:13.784Z,13.17
2017-04-02T05:50:54.285Z,13.23
2017-04-02T05:51:34.801Z,13.23
2017-04-02T05:52:15.655Z,13.32
2017-04-02T05:52:55.790Z,13.28
2017-04-02T05:53:36.367Z,13.26
2017-04-02T05:54:16.918Z,13.36
2017-04-02T05:54:57.385Z,13.17
2017-04-02T05:55:37.919Z,13.19
2017-04-02T05:56:18.455Z,13.2
2017-04-02T05:56:58.913Z,13.26
2017-04-02T05:57:39.425Z,13.29
2017-04-02T05:58:19.987Z,13.33
2017-04-02T05:59:00.422Z,13.39
2017-04-02T05:59:41.020Z,13.45
2017-04-02T06:00:21.527Z,13.48
2017-04-02T06:01:02.004Z,13.6
2017-04-02T06:01:42.553Z,13.63
2017-04-02T06:02:23.112Z,13.59
2017-04-02T06:03:03.532Z,13.55
2017-04-02T06:03:44.051Z,13.57
2017-04-02T06:04:24.584Z,13.48
2017-04-02T06:05:05.020Z,13.49
2017-04-02T06:05:45.561Z,13.45
2017-04-02T06:06:26.028Z,13.41
2017-04-02T06:07:06.515Z,13.38
2017-04-02T06:07:47.029Z,13.39
2017-04-02T06:08:27.490Z,13.33
2017-04-02T06:09:07.994Z,13.38
2017-04-02T06:09:48.494Z,13.49
2017-04-02T06:10:28.966Z,13.44
2017-04-02T06:11:09.465Z,13.42
2017-04-02T06:11:49.996Z,13.48
2017-04-02T06:12:30.507Z,13.49
2017-04-02T06:13:10.997Z,13.46
2017-04-02T06:13:51.507Z,13.26
2017-04-02T06:14:32.010Z,13.19
2017-04-02T06:15:12.530Z,13.12
2017-04-02T06:15:53.011Z,13.11
2017-04-02T06:16:33.503Z,13.2
2017-04-02T06:17:13.980Z,13.08
2017-04-02T06:17:54.477Z,13.19
2017-04-02T06:18:35.041Z,13.19
2017-04-02T06:19:15.551Z,13.07
2017-04-02T06:19:56.024Z,13.1
2017-04-02T06:20:36.528Z,13.05
2017-04-02T06:21:17.026Z,13.11
2017-04-02T06:21:57.549Z,13.12
2017-04-02T06:22:38.018Z,13.17
2017-04-02T06:23:18.498Z,13.11
2017-04-02T06:23:58.987Z,13.28
2017-04-02T06:24:39.487Z,13.25
2017-04-02T06:25:20.007Z,13.29
2017-04-02T06:26:00.478Z,13.3
2017-04-02T06:26:40.994Z,13.2
2017-04-02T06:27:21.476Z,13.05
2017-04-02T06:28:01.967Z,13.17
2017-04-02T06:28:42.442Z,13.15
2017-04-02T06:29:22.945Z,13.14
2017-04-02T06:30:03.464Z,13.12
2017-04-02T06:30:44.022Z,13.12
2017-04-02T06:31:24.470Z,13.12
2017-04-02T06:32:04.968Z,13.1
2017-04-02T06:32:45.452Z,13.11
2017-04-02T06:33:25.935Z,13.12
2017-04-02T06:34:06.449Z,13.08
2017-04-02T06:34:46.910Z,13.03
2017-04-02T06:35:27.416Z,12.85
2017-04-02T06:36:07.883Z,12.96
2017-04-02T06:36:48.420Z,12.9
2017-04-02T06:37:28.901Z,12.96
2017-04-02T06:38:09.381Z,13.01
2017-04-02T06:38:49.874Z,13.05
2017-04-02T06:39:30.357Z,13.14
2017-04-02T06:40:10.900Z,13.2
2017-04-02T06:40:51.406Z,13.28
2017-04-02T06:41:31.869Z,13.25
2017-04-02T06:42:12.383Z,13.29
2017-04-02T06:42:52.867Z,13.29
2017-04-02T06:43:33.370Z,13.38
2017-04-02T06:44:13.855Z,13.45
2017-04-02T06:44:54.338Z,13.46
2017-04-02T06:45:34.846Z,13.46
2017-04-02T06:46:15.330Z,13.41
2017-04-02T06:46:55.808Z,13.23
2017-04-02T06:47:36.316Z,13.19
2017-04-02T06:48:16.773Z,13.12
2017-04-02T06:48:57.290Z,13.22
2017-04-02T06:49:37.775Z,13.26
2017-04-02T06:50:18.237Z,13.36
2017-04-02T06:50:58.741Z,13.38
2017-04-02T06:51:39.231Z,13.41
2017-04-02T06:52:19.753Z,13.45
2017-04-02T06:53:00.234Z,13.46
2017-04-02T06:53:40.751Z,13.52
2017-04-02T06:54:21.206Z,13.52
2017-04-02T06:55:01.695Z,13.52
2017-04-02T06:55:42.183Z,13.54
2017-04-02T06:56:22.693Z,13.52
2017-04-02T06:57:03.215Z,13.55
2017-04-02T06:57:43.737Z,13.59
2017-04-02T06:58:24.182Z,13.45
2017-04-02T06:59:04.700Z,13.44
2017-04-02T06:59:45.197Z,13.41
2017-04-02T07:00:25.690Z,13.45
2017-04-02T07:01:06.183Z,13.41
2017-04-02T07:01:46.671Z,13.44
2017-04-02T07:02:27.138Z,13.41
2017-04-02T07:03:07.645Z,13.3
2017-04-02T07:03:48.110Z,13.36
2017-04-02T07:04:28.596Z,13.44
2017-04-02T07:05:09.116Z,13.46
2017-04-02T07:05:49.604Z,13.46
2017-04-02T07:06:30.153Z,13.44
2017-04-02T07:07:10.642Z,13.49
2017-04-02T07:07:51.155Z,13.44
2017-04-02T07:08:31.647Z,13.44
2017-04-02T07:09:12.235Z,13.54
2017-04-02T07:09:52.830Z,13.52
2017-04-02T07:10:33.239Z,13.45
2017-04-02T07:11:13.781Z,13.46
2017-04-02T07:11:54.261Z,13.41
2017-04-02T07:12:35.076Z,13.38
2017-04-02T07:13:15.612Z,13.39
2017-04-02T07:13:56.069Z,13.33
2017-04-02T07:14:36.610Z,13.32
2017-04-02T07:15:17.075Z,13.42
2017-04-02T07:15:57.594Z,13.62
2017-04-02T07:16:38.065Z,13.52
2017-04-02T07:17:18.586Z,13.59
2017-04-02T07:17:59.047Z,13.54
2017-04-02T07:18:39.524Z,13.63
2017-04-02T07:19:20.063Z,13.57
2017-04-02T07:20:00.543Z,13.52
2017-04-02T07:20:41.081Z,13.59
2017-04-02T07:21:21.556Z,13.55
2017-04-02T07:22:02.027Z,13.42
2017-04-02T07:22:42.537Z,13.42
2017-04-02T07:23:23.051Z,13.41
2017-04-02T07:24:03.571Z,13.39
2017-04-02T07:24:44.078Z,13.29
2017-04-02T07:25:24.537Z,13.2
2017-04-02T07:26:05.075Z,13.22
2017-04-02T07:26:45.534Z,13.32
2017-04-02T07:27:26.082Z,13.44
2017-04-02T07:28:06.690Z,13.42
2017-04-02T07:28:47.241Z,13.46
2017-04-02T07:29:27.713Z,13.55
2017-04-02T07:30:08.210Z,13.54
2017-04-02T07:30:48.743Z,13.63
2017-04-02T07:31:29.215Z,13.79
2017-04-02T07:32:09.773Z,13.97
2017-04-02T07:32:50.715Z,13.95
2017-04-02T07:33:31.228Z,14.15
2017-04-02T07:34:11.745Z,14.04
2017-04-02T07:34:52.200Z,14.12
2017-04-02T07:35:32.706Z,14.12
2017-04-02T07:36:13.424Z,14.06
2017-04-02T07:36:53.892Z,14.04
2017-04-02T07:37:34.370Z,14.09
2017-04-02T07:38:14.911Z,14.27
2017-04-02T07:38:55.401Z,14.2
2017-04-02T07:39:35.949Z,14.27
2017-04-02T07:40:16.548Z,14.36
2017-04-02T07:40:56.974Z,14.24
2017-04-02T07:41:37.483Z,14.33
2017-04-02T07:42:17.937Z,14.35
2017-04-02T07:42:58.444Z,14.29
2017-04-02T07:43:38.968Z,14.21
2017-04-02T07:44:19.516Z,14.18
2017-04-02T07:44:59.969Z,14.04
2017-04-02T07:45:40.491Z,14.14
2017-04-02T07:46:20.996Z,14.24
2017-04-02T07:47:01.471Z,14.22
2017-04-02T07:47:42.042Z,14.17
2017-04-02T07:48:22.553Z,14.35
2017-04-02T07:49:03.041Z,14.4
2017-04-02T07:49:43.580Z,14.37
2017-04-02T07:50:24.081Z,14.39
2017-04-02T07:51:04.574Z,14.36
2017-04-02T07:51:45.104Z,14.37
2017-04-02T07:52:25.586Z,14.35
2017-04-02T07:53:06.146Z,14.39
2017-04-02T07:53:46.647Z,14.46
2017-04-02T07:54:27.120Z,14.62
2017-04-02T07:55:07.634Z,14.8
2017-04-02T07:55:48.183Z,14.8
2017-04-02T07:56:28.682Z,14.89
2017-04-02T07:57:09.172Z,15.09
2017-04-02T07:57:49.608Z,15.07
2017-04-02T07:58:30.102Z,15.06
2017-04-02T07:59:10.590Z,15.25
2017-04-02T07:59:51.106Z,15.29
2017-04-02T08:00:31.560Z,15.27
2017-04-02T08:01:12.065Z,15.36
2017-04-02T08:01:52.582Z,15.35
2017-04-02T08:02:33.062Z,15.5
2017-04-02T08:03:13.585Z,15.56
2017-04-02T08:03:54.070Z,15.64
2017-04-02T08:04:34.547Z,15.68
2017-04-02T08:05:15.231Z,15.69
2017-04-02T08:05:55.663Z,15.59
2017-04-02T08:06:36.268Z,15.5
2017-04-02T08:07:16.780Z,15.43
2017-04-02T08:07:57.277Z,15.46
2017-04-02T08:08:37.803Z,15.38
2017-04-02T08:09:18.325Z,15.41
2017-04-02T08:09:58.816Z,15.36
2017-04-02T08:10:39.311Z,15.35
2017-04-02T08:11:19.773Z,15.32
2017-04-02T08:12:00.272Z,15.2
2017-04-02T08:12:40.774Z,15.1
2017-04-02T08:13:21.299Z,15.11
2017-04-02T08:14:01.798Z,15.01
2017-04-02T08:14:42.434Z,15.14
2017-04-02T08:15:22.961Z,15.14
2017-04-02T08:16:03.474Z,15.03
2017-04-02T08:16:44.025Z,15.1
2017-04-02T08:17:24.491Z,15.25
2017-04-02T08:18:05.019Z,15.17
2017-04-02T08:18:45.488Z,15.19
2017-04-02T08:19:26.002Z,15.19
2017-04-02T08:20:06.474Z,15.06
2017-04-02T08:20:47.022Z,15.09
2017-04-02T08:21:27.471Z,15.1
2017-04-02T08:22:07.984Z,15.06
2017-04-02T08:22:48.473Z,14.99
2017-04-02T08:23:28.965Z,15.02
2017-04-02T08:24:09.485Z,14.83
2017-04-02T08:24:50.017Z,14.86
2017-04-02T08:25:30.480Z,14.83
2017-04-02T08:26:10.962Z,14.83
2017-04-02T08:26:51.550Z,14.88
2017-04-02T08:27:31.980Z,14.89
2017-04-02T08:28:12.503Z,14.91
2017-04-02T08:28:53.019Z,14.91
2017-04-02T08:29:33.485Z,15.01
2017-04-02T08:30:14.020Z,15.13
2017-04-02T08:30:54.479Z,15.01
2017-04-02T08:31:34.961Z,15.16
2017-04-02T08:32:15.476Z,15.14
2017-04-02T08:32:55.989Z,15.2
2017-04-02T08:33:36.480Z,15.25
2017-04-02T08:34:17.033Z,15.14
2017-04-02T08:34:57.529Z,15.17
2017-04-02T08:35:38.041Z,15.06
2017-04-02T08:36:18.501Z,15.07
2017-04-02T08:36:59.036Z,15.11
2017-04-02T08:37:39.518Z,15.03
2017-04-02T08:38:20.007Z,14.98
2017-04-02T08:39:00.563Z,15.11
2017-04-02T08:39:41.044Z,15.25
2017-04-02T08:40:21.559Z,15.34
2017-04-02T08:41:02.049Z,15.54
2017-04-02T08:41:42.553Z,15.5
2017-04-02T08:42:23.009Z,15.57
2017-04-02T08:43:03.497Z,15.47